createdAt,value
2022-11-05T00:00:35.895Z,23.83
2022-11-05T00:03:21.460Z,44.95
2022-11-05T00:06:10.397Z,23.42
2022-11-05T00:08:56.417Z,33.40
2022-11-05T00:11:43.691Z,22.60
2022-11-05T00:14:29.410Z,18.98
2022-11-05T00:16:56.489Z,21.40
2022-11-05T00:19:23.326Z,15.65
2022-11-05T00:22:09.482Z,17.58
2022-11-05T00:24:54.706Z,19.73
2022-11-05T00:27:21.845Z,26.75
2022-11-05T00:29:50.954Z,21.52
2022-11-05T00:32:18.117Z,17.45
2022-11-05T00:34:45.052Z,26.25
2022-11-05T00:37:11.972Z,21.85
2022-11-05T00:39:38.962Z,15.27
2022-11-05T00:42:24.535Z,20.17
2022-11-05T00:45:03.388Z,17.67
2022-11-05T00:47:50.391Z,22.90
2022-11-05T00:50:18.906Z,18.23
2022-11-05T00:52:57.373Z,19.70
2022-11-05T00:55:39.806Z,25.75
2022-11-05T00:58:12.443Z,32.42
2022-11-05T01:00:41.818Z,16.00
2022-11-05T01:03:16.725Z,17.10
2022-11-05T01:05:46.818Z,21.00
2022-11-05T01:08:15.657Z,19.13
2022-11-05T01:10:44.774Z,19.88
2022-11-05T01:13:13.604Z,16.38
2022-11-05T01:15:40.979Z,21.10
2022-11-05T01:18:08.422Z,13.70
2022-11-05T01:20:37.442Z,18.85
2022-11-05T01:23:07.606Z,18.38
2022-11-05T01:25:39.221Z,24.13
2022-11-05T01:28:06.858Z,13.15
2022-11-05T01:30:34.025Z,17.50
2022-11-05T01:33:01.341Z,16.77
2022-11-05T01:35:28.735Z,17.77
2022-11-05T01:37:55.854Z,16.35
2022-11-05T01:40:24.665Z,19.67
2022-11-05T01:42:51.835Z,22.90
2022-11-05T01:45:27.453Z,17.92
2022-11-05T01:48:09.006Z,24.77
2022-11-05T01:50:47.781Z,14.98
2022-11-05T01:53:26.297Z,15.82
2022-11-05T01:56:07.561Z,18.10
2022-11-05T01:59:05.582Z,13.20
2022-11-05T02:01:35.946Z,22.30
2022-11-05T02:04:07.689Z,20.23
2022-11-05T02:06:45.939Z,18.48
2022-11-05T02:09:20.622Z,19.45
2022-11-05T02:11:49.638Z,24.05
2022-11-05T02:14:16.694Z,17.25
2022-11-05T02:17:16.478Z,15.93
2022-11-05T02:20:01.905Z,19.60
2022-11-05T02:22:48.691Z,24.52
2022-11-05T02:26:03.283Z,13.75
2022-11-05T02:28:39.747Z,14.93
2022-11-05T02:31:19.906Z,20.67
2022-11-05T02:34:11.514Z,19.65
2022-11-05T02:37:03.238Z,18.25
2022-11-05T02:39:56.380Z,13.77
2022-11-05T02:42:26.054Z,21.35
2022-11-05T02:45:26.011Z,14.65
2022-11-05T02:48:18.602Z,17.95
2022-11-05T02:51:07.064Z,18.30
2022-11-05T02:53:37.066Z,16.55
2022-11-05T02:56:09.028Z,10.00
2022-11-05T02:58:36.098Z,16.70
2022-11-05T03:01:07.018Z,19.65
2022-11-05T03:03:50.265Z,14.52
2022-11-05T03:06:31.629Z,15.73
2022-11-05T03:09:39.053Z,15.32
2022-11-05T03:12:06.125Z,11.02
2022-11-05T03:14:40.811Z,17.05
2022-11-05T03:17:41.695Z,18.67
2022-11-05T03:20:15.295Z,14.20
2022-11-05T03:23:05.126Z,12.68
2022-11-05T03:25:37.025Z,14.43
2022-11-05T03:28:07.486Z,9.57
2022-11-05T03:30:36.616Z,11.80
2022-11-05T03:33:17.924Z,14.27
2022-11-05T03:36:01.922Z,29.83
2022-11-05T03:38:33.985Z,21.25
2022-11-05T03:41:05.111Z,14.05
2022-11-05T03:43:37.023Z,16.02
2022-11-05T03:46:16.272Z,9.77
2022-11-05T03:48:49.091Z,14.73
2022-11-05T03:51:37.227Z,9.27
2022-11-05T03:54:05.653Z,9.48
2022-11-05T03:57:00.783Z,13.95
2022-11-05T03:59:29.306Z,9.10
2022-11-05T04:01:57.238Z,11.95
2022-11-05T04:04:27.189Z,10.07
2022-11-05T04:07:12.735Z,13.82
2022-11-05T04:09:58.246Z,13.27
2022-11-05T04:12:43.813Z,10.20
2022-11-05T04:15:10.916Z,11.75
2022-11-05T04:17:37.824Z,11.73
2022-11-05T04:20:24.032Z,8.13
2022-11-05T04:23:21.401Z,7.75
2022-11-05T04:28:15.636Z,13.10
2022-11-05T04:30:44.294Z,20.88
2022-11-05T04:33:16.204Z,16.90
2022-11-05T04:35:48.611Z,12.02
2022-11-05T04:38:18.852Z,9.32
2022-11-05T04:40:48.594Z,8.77
2022-11-05T04:43:18.630Z,14.95
2022-11-05T04:45:46.287Z,13.25
2022-11-05T04:48:13.646Z,17.33
2022-11-05T04:50:40.440Z,14.27
2022-11-05T04:53:07.347Z,8.65
2022-11-05T04:55:34.086Z,12.30
2022-11-05T04:58:01.004Z,10.60
2022-11-05T05:00:27.856Z,35.85
2022-11-05T05:02:54.621Z,17.27
2022-11-05T05:05:22.761Z,9.43
2022-11-05T05:07:49.479Z,11.57
2022-11-05T05:10:16.290Z,20.70
2022-11-05T05:12:43.057Z,18.70
2022-11-05T05:15:09.838Z,20.65
2022-11-05T05:17:36.549Z,16.57
2022-11-05T05:20:21.936Z,17.40
2022-11-05T05:22:53.546Z,12.77
2022-11-05T05:25:21.063Z,10.57
2022-11-05T05:27:47.887Z,15.15
2022-11-05T05:30:14.952Z,11.57
2022-11-05T05:32:41.750Z,19.45
2022-11-05T05:35:09.386Z,13.87
2022-11-05T05:37:36.393Z,18.15
2022-11-05T05:40:03.663Z,12.18
2022-11-05T05:42:30.924Z,17.20
2022-11-05T05:44:57.884Z,19.67
2022-11-05T05:47:25.224Z,8.48
2022-11-05T05:49:52.217Z,9.40
2022-11-05T05:52:19.179Z,13.93
2022-11-05T05:54:45.974Z,19.40
2022-11-05T05:57:12.842Z,13.35
2022-11-05T05:59:39.716Z,9.18
2022-11-05T06:02:06.552Z,13.10
2022-11-05T06:04:33.701Z,12.02
2022-11-05T06:07:00.576Z,9.50
2022-11-05T06:09:27.652Z,13.63
2022-11-05T06:11:54.445Z,14.13
2022-11-05T06:14:21.182Z,12.98
2022-11-05T06:16:48.051Z,25.13
2022-11-05T06:19:14.985Z,16.02
2022-11-05T06:21:41.912Z,11.18
2022-11-05T06:24:09.092Z,16.75
2022-11-05T06:26:35.971Z,16.13
2022-11-05T06:29:02.991Z,13.73
2022-11-05T06:31:29.727Z,18.80
2022-11-05T06:33:56.601Z,10.45
2022-11-05T06:36:23.460Z,14.43
2022-11-05T06:38:50.578Z,13.00
2022-11-05T06:41:17.505Z,23.08
2022-11-05T06:43:44.369Z,20.98
2022-11-05T06:46:12.353Z,21.63
2022-11-05T06:48:39.404Z,20.40
2022-11-05T06:51:08.186Z,17.58
2022-11-05T06:53:35.639Z,13.50
2022-11-05T06:56:07.053Z,24.75
2022-11-05T06:58:34.769Z,16.55
2022-11-05T07:01:03.602Z,19.95
2022-11-05T07:03:30.635Z,12.73
2022-11-05T07:05:59.627Z,17.40
2022-11-05T07:08:30.037Z,23.77
2022-11-05T07:11:00.050Z,22.63
2022-11-05T07:13:27.464Z,21.42
2022-11-05T07:15:54.290Z,16.13
2022-11-05T07:18:21.794Z,24.38
2022-11-05T07:20:49.374Z,14.25
2022-11-05T07:23:17.059Z,22.75
2022-11-05T07:25:44.464Z,19.13
2022-11-05T07:28:11.521Z,22.77
2022-11-05T07:30:38.525Z,21.77
2022-11-05T07:33:06.075Z,20.02
2022-11-05T07:35:32.939Z,19.13
2022-11-05T07:37:59.976Z,22.25
2022-11-05T07:40:28.766Z,17.80
2022-11-05T07:42:58.296Z,35.80
2022-11-05T07:45:26.700Z,11.38
2022-11-05T07:48:01.829Z,37.78
2022-11-05T07:50:34.506Z,30.50
2022-11-05T07:53:06.765Z,38.03
2022-11-05T07:55:33.915Z,25.33
2022-11-05T07:58:01.229Z,28.27
2022-11-05T08:00:29.185Z,21.65
2022-11-05T08:05:37.758Z,20.92
2022-11-05T08:08:09.406Z,23.48
2022-11-05T08:10:37.866Z,23.23
2022-11-05T08:13:05.907Z,27.10
2022-11-05T08:15:34.483Z,20.95
2022-11-05T08:18:07.597Z,15.05
2022-11-05T08:20:35.589Z,30.80
2022-11-05T08:23:02.521Z,25.48
2022-11-05T08:25:29.644Z,28.23
2022-11-05T08:28:05.516Z,24.33
2022-11-05T08:30:33.211Z,15.70
2022-11-05T08:33:05.334Z,20.73
2022-11-05T08:35:33.976Z,35.13
2022-11-05T08:38:03.643Z,27.63
2022-11-05T08:40:32.369Z,29.40
2022-11-05T08:43:02.766Z,6.75
2022-11-05T08:45:30.226Z,30.67
2022-11-05T08:48:02.087Z,18.23
2022-11-05T08:50:29.862Z,31.02
2022-11-05T08:55:24.121Z,34.25
2022-11-05T08:58:02.128Z,44.13
2022-11-05T09:00:31.149Z,33.72
2022-11-05T09:03:03.051Z,18.55
2022-11-05T09:05:31.774Z,42.60
2022-11-05T09:08:01.202Z,27.10
2022-11-05T09:10:28.727Z,29.13
2022-11-05T09:12:56.274Z,18.60
2022-11-05T09:15:24.428Z,27.25
2022-11-05T09:17:51.387Z,30.38
2022-11-05T09:20:18.322Z,21.15
2022-11-05T09:22:46.310Z,28.73
2022-11-05T09:25:13.665Z,21.15
2022-11-05T09:27:40.606Z,8.18
2022-11-05T09:30:08.296Z,28.10
2022-11-05T09:35:02.124Z,8.63
2022-11-05T09:37:29.152Z,42.25
2022-11-05T09:39:58.505Z,20.98
2022-11-05T09:42:37.731Z,12.95
2022-11-05T09:45:20.216Z,33.17
2022-11-05T09:48:01.759Z,15.73
2022-11-05T09:50:43.144Z,30.88
2022-11-05T09:53:16.457Z,27.30
2022-11-05T09:55:47.309Z,24.80
2022-11-05T09:58:24.447Z,24.95
2022-11-05T10:00:55.137Z,16.23
2022-11-05T10:03:25.551Z,20.90
2022-11-05T10:05:54.402Z,18.15
2022-11-05T10:08:25.911Z,2.47
2022-11-05T10:11:02.409Z,20.95
2022-11-05T10:13:34.256Z,28.33
2022-11-05T10:16:29.299Z,20.85
2022-11-05T10:19:24.472Z,26.05
2022-11-05T10:22:08.306Z,19.65
2022-11-05T10:24:35.616Z,20.52
2022-11-05T10:27:03.259Z,7.30
2022-11-05T10:31:59.819Z,28.13
2022-11-05T10:34:31.443Z,9.10
2022-11-05T10:36:58.631Z,15.13
2022-11-05T10:39:27.682Z,23.77
2022-11-05T10:42:17.817Z,25.15
2022-11-05T10:45:19.999Z,20.27
2022-11-05T10:48:45.681Z,10.20
2022-11-05T10:51:13.834Z,12.95
2022-11-05T10:53:50.985Z,15.68
2022-11-05T10:56:37.309Z,15.35
2022-11-05T10:59:11.896Z,13.18
2022-11-05T11:01:39.391Z,16.63
2022-11-05T11:04:15.870Z,16.67
2022-11-05T11:06:52.925Z,5.53
2022-11-05T11:09:46.929Z,20.58
2022-11-05T11:12:31.141Z,15.18
2022-11-05T11:15:15.927Z,15.75
2022-11-05T11:17:42.924Z,5.82
2022-11-05T11:20:24.465Z,12.38
2022-11-05T11:23:16.615Z,9.20
2022-11-05T11:26:13.273Z,17.27
2022-11-05T11:28:45.784Z,12.48
2022-11-05T11:31:23.746Z,21.85
2022-11-05T11:34:03.506Z,10.07
2022-11-05T11:36:38.686Z,9.43
2022-11-05T11:39:11.654Z,15.25
2022-11-05T11:41:43.059Z,18.60
2022-11-05T11:44:18.763Z,13.20
2022-11-05T11:46:57.818Z,14.73
2022-11-05T11:49:47.424Z,9.85
2022-11-05T11:52:16.255Z,14.57
2022-11-05T11:54:43.251Z,4.05
2022-11-05T11:57:25.674Z,7.90
2022-11-05T12:00:12.386Z,14.18
2022-11-05T12:02:47.114Z,20.30
2022-11-05T12:05:23.017Z,4.65
2022-11-05T12:08:36.040Z,15.48
2022-11-05T12:11:23.786Z,5.18
2022-11-05T12:14:08.341Z,4.45
2022-11-05T12:16:58.485Z,8.93
2022-11-05T12:19:50.146Z,20.08
2022-11-05T12:23:11.591Z,23.38
2022-11-05T12:26:03.881Z,10.45
2022-11-05T12:29:18.527Z,6.68
2022-11-05T12:31:52.271Z,14.00
2022-11-05T12:34:53.075Z,6.95
2022-11-05T12:37:41.833Z,9.13
2022-11-05T12:40:12.350Z,17.45
2022-11-05T12:42:49.009Z,10.00
2022-11-05T12:45:26.166Z,7.85
2022-11-05T12:48:28.265Z,10.25
2022-11-05T12:51:12.920Z,16.40
2022-11-05T12:54:04.549Z,11.18
2022-11-05T12:56:40.797Z,13.88
2022-11-05T12:59:35.823Z,17.90
2022-11-05T13:02:07.747Z,8.25
2022-11-05T13:04:42.448Z,13.20
2022-11-05T13:07:13.753Z,12.30
2022-11-05T13:09:46.993Z,10.98
2022-11-05T13:12:18.302Z,11.55
2022-11-05T13:14:55.109Z,5.13
2022-11-05T13:17:25.894Z,12.10
2022-11-05T13:19:56.852Z,9.55
2022-11-05T13:22:37.416Z,12.40
2022-11-05T13:25:28.103Z,11.20
2022-11-05T13:28:26.816Z,5.13
2022-11-05T13:30:58.428Z,11.20
2022-11-05T13:33:35.392Z,8.95
2022-11-05T13:36:33.373Z,10.65
2022-11-05T13:39:18.196Z,9.48
2022-11-05T13:42:16.569Z,13.70
2022-11-05T13:45:06.231Z,16.55
2022-11-05T13:48:06.663Z,9.77
2022-11-05T13:50:51.822Z,5.05
2022-11-05T13:53:57.449Z,10.13
2022-11-05T13:57:03.709Z,10.20
2022-11-05T14:00:00.748Z,10.50
2022-11-05T14:03:02.324Z,6.03
2022-11-05T14:05:31.117Z,17.40
2022-11-05T14:08:16.457Z,6.00
2022-11-05T14:11:18.746Z,7.32
2022-11-05T14:13:49.725Z,10.70
2022-11-05T14:16:22.042Z,5.85
2022-11-05T14:18:55.940Z,7.80
2022-11-05T14:21:25.780Z,7.47
2022-11-05T14:23:57.759Z,7.10
2022-11-05T14:26:30.079Z,19.08
2022-11-05T14:29:03.094Z,9.20
2022-11-05T14:35:21.136Z,7.00
2022-11-05T14:37:56.298Z,8.98
2022-11-05T14:40:37.386Z,5.72
2022-11-05T14:43:08.532Z,12.20
2022-11-05T14:45:58.275Z,5.43
2022-11-05T14:49:05.207Z,17.48
2022-11-05T14:51:44.116Z,10.77
2022-11-05T14:54:22.626Z,10.73
2022-11-05T14:56:57.210Z,16.27
2022-11-05T14:59:28.215Z,16.15
2022-11-05T15:02:03.932Z,15.77
2022-11-05T15:04:33.711Z,10.65
2022-11-05T15:07:03.875Z,9.13
2022-11-05T15:09:56.100Z,8.85
2022-11-05T15:12:44.882Z,6.38
2022-11-05T15:15:30.112Z,12.35
2022-11-05T15:18:18.822Z,9.80
2022-11-05T15:20:48.863Z,6.38
2022-11-05T15:23:22.524Z,40.67
2022-11-05T15:26:04.456Z,14.98
2022-11-05T15:28:47.360Z,11.43
2022-11-05T15:31:14.005Z,9.00
2022-11-05T15:33:49.983Z,8.93
2022-11-05T15:36:28.805Z,11.00
2022-11-05T15:39:27.577Z,18.15
2022-11-05T15:41:45.943Z,10.00
2022-11-05T15:44:26.694Z,10.30
2022-11-05T15:47:13.583Z,5.47
2022-11-05T15:49:42.286Z,17.00
2022-11-05T15:52:12.158Z,6.75
2022-11-05T15:54:39.132Z,13.10
2022-11-05T15:57:13.652Z,5.13
2022-11-05T15:59:40.409Z,4.72
2022-11-05T16:02:28.673Z,9.55
2022-11-05T16:04:56.530Z,10.88
2022-11-05T16:10:18.313Z,6.78
2022-11-05T16:12:45.235Z,5.22
2022-11-05T16:15:11.820Z,6.32
2022-11-05T16:18:00.247Z,7.45
2022-11-05T16:20:31.953Z,8.50
2022-11-05T16:23:05.006Z,4.13
2022-11-05T16:25:40.723Z,9.13
2022-11-05T16:28:30.791Z,8.88
2022-11-05T16:31:00.849Z,8.40
2022-11-05T16:33:34.185Z,7.75
2022-11-05T16:36:01.038Z,4.38
2022-11-05T16:38:27.907Z,3.77
2022-11-05T16:40:54.645Z,3.47
2022-11-05T16:43:24.322Z,13.70
2022-11-05T16:45:57.717Z,11.73
2022-11-05T16:48:25.314Z,10.07
2022-11-05T16:50:52.256Z,8.38
2022-11-05T16:53:19.252Z,5.03
2022-11-05T16:55:46.580Z,8.00
2022-11-05T16:58:25.962Z,5.25
2022-11-05T17:01:05.531Z,8.13
2022-11-05T17:03:32.461Z,7.75
2022-11-05T17:05:59.295Z,3.17
2022-11-05T17:08:26.357Z,9.57
2022-11-05T17:10:53.298Z,9.73
2022-11-05T17:13:20.496Z,8.55
2022-11-05T17:15:49.409Z,5.60
2022-11-05T17:18:18.987Z,10.05
2022-11-05T17:20:51.941Z,5.72
2022-11-05T17:23:21.794Z,6.13
2022-11-05T17:25:51.320Z,3.72
2022-11-05T17:28:19.159Z,5.40
2022-11-05T17:30:52.182Z,3.17
2022-11-05T17:33:20.963Z,5.10
2022-11-05T17:35:48.195Z,4.25
2022-11-05T17:38:15.269Z,6.88
2022-11-05T17:40:42.407Z,6.72
2022-11-05T17:43:10.321Z,6.25
2022-11-05T17:45:46.114Z,3.47
2022-11-05T17:48:13.746Z,4.53
2022-11-05T17:50:42.288Z,3.85
2022-11-05T17:53:10.302Z,10.27
2022-11-05T17:55:37.278Z,9.52
2022-11-05T17:58:04.179Z,13.13
2022-11-05T18:00:31.125Z,11.10
2022-11-05T18:02:57.923Z,7.63
2022-11-05T18:05:27.448Z,5.90
2022-11-05T18:07:55.491Z,4.88
2022-11-05T18:10:23.329Z,5.18
2022-11-05T18:12:50.334Z,2.83
2022-11-05T18:15:17.727Z,9.98
2022-11-05T18:17:46.158Z,5.38
2022-11-05T18:20:19.435Z,4.03
2022-11-05T18:22:49.523Z,6.15
2022-11-05T18:25:16.744Z,5.07
2022-11-05T18:27:44.128Z,3.33
2022-11-05T18:30:13.905Z,3.55
2022-11-05T18:32:40.975Z,2.53
2022-11-05T18:35:08.097Z,11.52
2022-11-05T18:37:36.509Z,4.68
2022-11-05T18:40:03.374Z,3.72
2022-11-05T18:42:30.140Z,6.05
2022-11-05T18:44:56.906Z,5.13
2022-11-05T18:47:23.719Z,6.93
2022-11-05T18:49:50.440Z,4.90
2022-11-05T18:52:17.246Z,4.03
2022-11-05T18:54:44.033Z,3.30
2022-11-05T18:57:10.938Z,8.52
2022-11-05T18:59:39.390Z,5.27
2022-11-05T19:02:08.000Z,2.75
2022-11-05T19:04:36.222Z,1.95
2022-11-05T19:07:05.469Z,2.28
2022-11-05T19:09:37.178Z,3.40
2022-11-05T19:12:06.306Z,8.20
2022-11-05T19:14:34.266Z,3.38
2022-11-05T19:17:01.901Z,4.40
2022-11-05T19:21:55.634Z,4.40
2022-11-05T19:24:22.484Z,3.77
2022-11-05T19:26:49.221Z,4.63
2022-11-05T19:29:16.381Z,4.65
2022-11-05T19:31:43.326Z,12.77
2022-11-05T19:34:10.000Z,3.60
2022-11-05T19:36:36.744Z,5.70
2022-11-05T19:39:08.738Z,3.58
2022-11-05T19:41:35.798Z,2.17
2022-11-05T19:44:02.628Z,6.13
2022-11-05T19:46:30.947Z,3.22
2022-11-05T19:49:00.138Z,7.13
2022-11-05T19:51:29.961Z,4.45
2022-11-05T19:53:59.901Z,10.25
2022-11-05T19:56:29.713Z,3.58
2022-11-05T19:58:57.253Z,9.13
2022-11-05T20:01:26.227Z,4.88
2022-11-05T20:03:54.811Z,1.70
2022-11-05T20:06:31.861Z,15.02
2022-11-05T20:11:49.419Z,5.75
2022-11-05T20:14:16.270Z,4.32
2022-11-05T20:16:43.241Z,4.65
2022-11-05T20:19:13.300Z,9.50
2022-11-05T20:21:40.332Z,3.85
2022-11-05T20:24:07.789Z,6.47
2022-11-05T20:26:34.792Z,5.20
2022-11-05T20:29:01.793Z,4.72
2022-11-05T20:31:29.021Z,5.72
2022-11-05T20:33:56.334Z,7.72
2022-11-05T20:36:25.207Z,5.65
2022-11-05T20:39:02.952Z,4.95
2022-11-05T20:41:30.704Z,6.47
2022-11-05T20:43:57.633Z,7.25
2022-11-05T20:46:25.056Z,3.03
2022-11-05T20:48:55.058Z,7.43
2022-11-05T20:51:24.289Z,6.25
2022-11-05T20:53:55.353Z,4.07
2022-11-05T20:56:25.622Z,9.23
2022-11-05T20:58:53.166Z,3.58
2022-11-05T21:03:48.385Z,8.60
2022-11-05T21:06:15.636Z,6.50
2022-11-05T21:08:43.311Z,6.22
2022-11-05T21:11:10.628Z,6.63
2022-11-05T21:13:37.641Z,7.72
2022-11-05T21:16:07.327Z,5.30
2022-11-05T21:18:36.806Z,5.43
2022-11-05T21:21:08.968Z,3.80
2022-11-05T21:23:35.912Z,8.10
2022-11-05T21:26:05.294Z,5.25
2022-11-05T21:28:34.177Z,9.18
2022-11-05T21:31:02.468Z,5.85
2022-11-05T21:33:29.914Z,6.45
2022-11-05T21:35:57.524Z,6.75
2022-11-05T21:40:51.548Z,8.18
2022-11-05T21:43:18.420Z,8.20
2022-11-05T21:45:45.408Z,10.33
2022-11-05T21:48:15.265Z,11.23
2022-11-05T21:51:00.916Z,7.35
2022-11-05T21:53:53.966Z,9.32
2022-11-05T21:56:45.058Z,7.10
2022-11-05T21:59:32.820Z,7.65
2022-11-05T22:02:03.175Z,5.35
2022-11-05T22:04:35.912Z,10.77
2022-11-05T22:07:03.608Z,14.93
2022-11-05T22:11:57.268Z,6.82
2022-11-05T22:14:24.359Z,8.77
2022-11-05T22:16:51.546Z,17.83
2022-11-05T22:19:19.588Z,4.65
2022-11-05T22:21:48.531Z,14.43
2022-11-05T22:24:16.169Z,7.55
2022-11-05T22:31:37.866Z,7.55
2022-11-05T22:34:06.046Z,5.15
2022-11-05T22:36:34.077Z,5.47
2022-11-05T22:39:01.688Z,5.40
2022-11-05T22:43:55.747Z,5.10
2022-11-05T22:46:24.643Z,3.63
2022-11-05T22:48:51.995Z,9.50
2022-11-05T22:51:21.747Z,7.50
2022-11-05T22:53:48.728Z,5.30
2022-11-05T22:56:19.268Z,5.70
2022-11-05T22:58:47.001Z,10.25
2022-11-05T23:03:44.295Z,8.80
2022-11-05T23:06:35.664Z,8.95
2022-11-05T23:09:23.563Z,5.53
2022-11-05T23:11:52.805Z,4.13
2022-11-05T23:14:20.026Z,4.30
2022-11-05T23:17:05.612Z,5.72
2022-11-05T23:19:51.070Z,8.15
2022-11-05T23:22:46.136Z,6.53
2022-11-05T23:25:17.167Z,10.02
2022-11-05T23:27:46.540Z,5.25
2022-11-05T23:30:16.976Z,6.97
2022-11-05T23:32:44.067Z,15.45
2022-11-05T23:35:11.618Z,7.45
2022-11-05T23:40:27.628Z,6.43
2022-11-05T23:43:13.449Z,9.77
2022-11-05T23:45:57.471Z,4.20
2022-11-05T23:48:36.448Z,4.10
2022-11-05T23:51:09.073Z,4.28
2022-11-05T23:53:37.817Z,6.53
2022-11-05T23:56:08.122Z,6.68
2022-11-05T23:58:36.802Z,6.85
